createdAt,value
2018-05-21T00:01:42.421Z,10.21
2018-05-21T00:06:44.925Z,10.01
2018-05-21T00:11:47.437Z,9.72
2018-05-21T00:16:50.036Z,9.48
2018-05-21T00:21:52.610Z,9.31
2018-05-21T00:26:55.275Z,9.15
2018-05-21T00:31:58.204Z,8.94
2018-05-21T00:37:00.668Z,8.95
2018-05-21T00:42:03.412Z,8.79
2018-05-21T00:47:05.969Z,8.74
2018-05-21T00:52:08.538Z,8.67
2018-05-21T00:57:11.053Z,8.55
2018-05-21T01:02:13.534Z,8.39
2018-05-21T01:07:16.113Z,8.33
2018-05-21T01:12:18.782Z,8.27
2018-05-21T01:17:21.330Z,8.17
2018-05-21T01:22:23.851Z,8.08
2018-05-21T01:27:26.475Z,7.97
2018-05-21T01:32:28.935Z,7.84
2018-05-21T01:37:31.511Z,7.79
2018-05-21T01:42:33.995Z,7.73
2018-05-21T01:47:36.471Z,7.87
2018-05-21T01:52:38.969Z,7.86
2018-05-21T01:57:41.467Z,8.04
2018-05-21T02:02:43.960Z,8.02
2018-05-21T02:07:46.581Z,7.91
2018-05-21T02:12:49.230Z,7.70
2018-05-21T02:17:51.820Z,7.52
2018-05-21T02:22:54.374Z,7.54
2018-05-21T02:27:56.942Z,7.48
2018-05-21T02:32:59.467Z,7.58
2018-05-21T02:38:01.983Z,7.63
2018-05-21T02:43:04.457Z,7.66
2018-05-21T02:48:06.943Z,7.65
2018-05-21T02:53:09.531Z,7.67
2018-05-21T02:58:12.007Z,7.55
2018-05-21T03:03:15.099Z,7.52
2018-05-21T03:08:17.711Z,7.39
2018-05-21T03:13:20.323Z,7.48
2018-05-21T03:18:23.109Z,7.45
2018-05-21T03:23:25.829Z,7.41
2018-05-21T03:28:28.447Z,7.35
2018-05-21T03:33:30.932Z,7.38
2018-05-21T03:38:33.688Z,7.50
2018-05-21T03:43:36.204Z,7.64
2018-05-21T03:48:38.725Z,7.80
2018-05-21T03:53:41.244Z,7.99
2018-05-21T03:58:55.603Z,8.13
2018-05-21T04:03:58.156Z,8.29
2018-05-21T04:09:00.632Z,8.51
2018-05-21T04:14:05.235Z,8.78
2018-05-21T04:19:07.866Z,9.03
2018-05-21T04:24:10.348Z,9.36
2018-05-21T04:29:12.849Z,14.74
2018-05-21T04:34:15.375Z,20.14
2018-05-21T04:39:18.633Z,22.35
2018-05-21T04:44:23.871Z,24.02
2018-05-21T04:49:26.401Z,24.40
2018-05-21T04:54:29.220Z,23.94
2018-05-21T04:59:31.821Z,23.76
2018-05-21T05:04:34.310Z,23.37
2018-05-21T05:09:36.771Z,22.42
2018-05-21T05:14:39.662Z,23.50
2018-05-21T05:19:42.278Z,23.51
2018-05-21T05:24:44.775Z,24.94
2018-05-21T05:29:47.613Z,25.24
2018-05-21T05:34:50.179Z,26.18
2018-05-21T05:39:52.775Z,28.27
2018-05-21T05:44:55.256Z,29.27
2018-05-21T05:49:57.761Z,30.59
2018-05-21T05:55:00.250Z,30.89
2018-05-21T06:00:02.732Z,31.56
2018-05-21T06:05:05.241Z,30.04
2018-05-21T06:10:07.891Z,30.79
2018-05-21T06:15:10.357Z,29.46
2018-05-21T06:20:13.009Z,29.79
2018-05-21T06:25:15.523Z,30.75
2018-05-21T06:30:18.088Z,30.85
2018-05-21T06:35:20.610Z,30.99
2018-05-21T06:40:23.136Z,31.43
2018-05-21T06:45:25.728Z,30.31
2018-05-21T06:50:28.217Z,32.27
2018-05-21T06:55:30.716Z,32.01
2018-05-21T07:00:33.205Z,32.00
2018-05-21T07:05:35.696Z,29.88
2018-05-21T07:10:38.231Z,29.84
2018-05-21T07:15:40.711Z,31.75
2018-05-21T07:20:43.200Z,32.99
2018-05-21T07:25:45.784Z,31.74
2018-05-21T07:30:48.342Z,33.16
2018-05-21T07:35:50.909Z,32.62
2018-05-21T07:40:53.448Z,30.42
2018-05-21T07:45:55.992Z,31.38
2018-05-21T07:50:58.543Z,30.15
2018-05-21T07:56:01.049Z,28.29
2018-05-21T08:01:13.464Z,30.93
2018-05-21T08:06:18.661Z,31.22
2018-05-21T08:11:21.245Z,30.79
2018-05-21T08:16:23.799Z,33.12
2018-05-21T08:21:26.350Z,29.97
2018-05-21T08:26:28.876Z,30.03
2018-05-21T08:31:31.366Z,28.74
2018-05-21T08:36:33.900Z,30.80
2018-05-21T08:41:36.404Z,31.11
2018-05-21T08:46:39.047Z,30.24
2018-05-21T08:51:41.561Z,30.87
2018-05-21T08:56:44.060Z,32.09
2018-05-21T09:01:46.613Z,31.19
2018-05-21T09:06:49.151Z,29.21
2018-05-21T09:11:51.704Z,29.77
2018-05-21T09:16:54.307Z,29.11
2018-05-21T09:21:56.860Z,26.87
2018-05-21T09:26:59.341Z,28.60
2018-05-21T09:32:01.837Z,27.99
2018-05-21T09:37:04.339Z,29.67
2018-05-21T09:42:06.876Z,30.00
2018-05-21T09:47:09.316Z,29.72
2018-05-21T09:52:11.832Z,28.70
2018-05-21T09:57:14.338Z,27.87
2018-05-21T10:02:16.791Z,27.79
2018-05-21T10:07:19.353Z,27.89
2018-05-21T10:12:21.978Z,27.97
2018-05-21T10:17:24.574Z,27.77
2018-05-21T10:22:27.092Z,27.77
2018-05-21T10:27:29.608Z,26.67
2018-05-21T10:32:32.066Z,26.09
2018-05-21T10:37:34.552Z,27.58
2018-05-21T10:42:37.032Z,27.81
2018-05-21T10:47:39.550Z,27.63
2018-05-21T10:52:42.053Z,27.96
2018-05-21T10:57:44.547Z,27.19
2018-05-21T11:02:47.131Z,25.82
2018-05-21T11:07:49.670Z,26.23
2018-05-21T11:12:52.211Z,27.29
2018-05-21T11:17:54.880Z,26.49
2018-05-21T11:22:57.359Z,26.45
2018-05-21T11:27:59.847Z,26.64
2018-05-21T11:33:02.363Z,27.83
2018-05-21T11:38:04.849Z,28.07
2018-05-21T11:43:07.346Z,27.17
2018-05-21T11:48:09.895Z,27.47
2018-05-21T11:53:12.382Z,27.23
2018-05-21T11:58:14.887Z,27.37
2018-05-21T12:03:17.408Z,27.83
2018-05-21T12:08:19.935Z,27.77
2018-05-21T12:13:22.492Z,27.25
2018-05-21T12:18:24.971Z,26.90
2018-05-21T12:23:27.488Z,27.60
2018-05-21T12:28:30.006Z,27.41
2018-05-21T12:33:32.496Z,27.84
2018-05-21T12:38:35.028Z,26.88
2018-05-21T12:43:49.539Z,26.31
2018-05-21T12:48:53.104Z,25.25
2018-05-21T12:53:55.664Z,25.88
2018-05-21T12:58:58.355Z,26.79
2018-05-21T13:04:00.851Z,26.44
2018-05-21T13:09:03.460Z,26.16
2018-05-21T13:14:05.975Z,26.24
2018-05-21T13:19:09.143Z,26.03
2018-05-21T13:24:11.704Z,25.96
2018-05-21T13:29:14.108Z,26.00
2018-05-21T13:34:16.710Z,25.67
2018-05-21T13:39:19.404Z,26.25
2018-05-21T13:44:22.029Z,26.66
2018-05-21T13:49:24.795Z,26.40
2018-05-21T13:54:27.302Z,25.65
2018-05-21T13:59:29.837Z,25.71
2018-05-21T14:04:32.320Z,26.05
2018-05-21T14:09:35.457Z,26.53
2018-05-21T14:14:37.943Z,27.09
2018-05-21T14:19:40.493Z,27.28
2018-05-21T14:24:42.992Z,27.42
2018-05-21T14:29:45.511Z,27.09
2018-05-21T14:34:47.971Z,27.93
2018-05-21T14:39:51.204Z,27.05
2018-05-21T14:44:53.948Z,26.49
2018-05-21T14:49:56.444Z,26.20
2018-05-21T14:54:59.462Z,26.20
2018-05-21T15:00:01.887Z,25.70
2018-05-21T15:05:04.383Z,25.48
2018-05-21T15:10:06.899Z,25.03
2018-05-21T15:15:09.405Z,25.76
2018-05-21T15:20:11.868Z,26.27
2018-05-21T15:25:14.400Z,26.71
2018-05-21T15:30:17.197Z,26.26
2018-05-21T15:35:23.671Z,26.25
2018-05-21T15:40:26.132Z,26.16
2018-05-21T15:45:28.663Z,26.06
2018-05-21T15:50:31.144Z,26.52
2018-05-21T15:55:36.063Z,26.30
2018-05-21T16:00:38.566Z,26.33
2018-05-21T16:05:41.108Z,26.48
2018-05-21T16:10:43.610Z,26.78
2018-05-21T16:15:46.231Z,26.75
2018-05-21T16:20:48.928Z,26.14
2018-05-21T16:25:51.584Z,26.28
2018-05-21T16:30:54.301Z,26.81
2018-05-21T16:36:07.741Z,26.76
2018-05-21T16:41:11.386Z,26.40
2018-05-21T16:46:13.938Z,26.32
2018-05-21T16:51:18.746Z,26.59
2018-05-21T16:56:22.153Z,26.40
2018-05-21T17:01:24.680Z,25.94
2018-05-21T17:06:32.680Z,25.72
2018-05-21T17:11:35.158Z,25.42
2018-05-21T17:16:37.706Z,25.16
2018-05-21T17:21:40.337Z,25.27
2018-05-21T17:26:42.805Z,25.35
2018-05-21T17:31:45.431Z,25.11
2018-05-21T17:36:48.818Z,24.97
2018-05-21T17:41:51.552Z,24.85
2018-05-21T17:46:54.193Z,24.55
2018-05-21T17:51:56.852Z,24.24
2018-05-21T17:56:59.392Z,24.17
2018-05-21T18:02:03.920Z,23.75
2018-05-21T18:07:06.725Z,23.49
2018-05-21T18:12:09.231Z,23.33
2018-05-21T18:17:11.725Z,23.02
2018-05-21T18:22:15.040Z,22.69
2018-05-21T18:27:18.063Z,22.37
2018-05-21T18:32:21.218Z,22.01
2018-05-21T18:37:23.828Z,21.53
2018-05-21T18:42:26.363Z,21.25
2018-05-21T18:47:28.910Z,20.86
2018-05-21T18:52:31.395Z,20.53
2018-05-21T18:57:33.904Z,20.22
2018-05-21T19:02:37.058Z,19.97
2018-05-21T19:07:43.375Z,19.62
2018-05-21T19:12:46.233Z,19.33
2018-05-21T19:17:49.444Z,19.08
2018-05-21T19:22:53.684Z,18.80
2018-05-21T19:27:56.786Z,18.61
2018-05-21T19:33:00.683Z,18.35
2018-05-21T19:38:03.499Z,18.14
2018-05-21T19:43:06.001Z,17.93
2018-05-21T19:48:08.483Z,17.76
2018-05-21T19:53:10.988Z,17.63
2018-05-21T19:58:13.473Z,17.46
2018-05-21T20:03:15.953Z,17.35
2018-05-21T20:08:18.486Z,17.16
2018-05-21T20:13:21.015Z,16.88
2018-05-21T20:18:38.621Z,16.85
2018-05-21T20:23:42.110Z,16.80
2018-05-21T20:28:47.382Z,16.77
2018-05-21T20:33:49.992Z,16.80
2018-05-21T20:38:52.571Z,16.58
2018-05-21T20:43:55.059Z,16.48
2018-05-21T20:48:57.558Z,16.22
2018-05-21T20:54:00.276Z,15.93
2018-05-21T20:59:02.928Z,15.84
2018-05-21T21:04:05.788Z,15.74
2018-05-21T21:09:08.329Z,15.76
2018-05-21T21:14:10.793Z,15.65
2018-05-21T21:19:13.289Z,15.42
2018-05-21T21:24:15.785Z,15.21
2018-05-21T21:29:18.434Z,15.22
2018-05-21T21:34:21.371Z,15.28
2018-05-21T21:39:23.901Z,15.29
2018-05-21T21:44:26.400Z,15.36
2018-05-21T21:49:28.910Z,15.33
2018-05-21T21:54:31.372Z,15.36
2018-05-21T21:59:33.870Z,15.22
2018-05-21T22:04:36.365Z,15.20
2018-05-21T22:09:38.865Z,15.28
2018-05-21T22:14:41.362Z,15.27
2018-05-21T22:19:43.864Z,15.19
2018-05-21T22:24:46.386Z,15.16
2018-05-21T22:29:48.897Z,14.95
2018-05-21T22:34:51.438Z,14.90
2018-05-21T22:39:54.003Z,14.73
2018-05-21T22:44:56.579Z,14.64
2018-05-21T22:49:59.112Z,14.51
2018-05-21T22:55:01.536Z,14.54
2018-05-21T23:00:04.171Z,14.40
2018-05-21T23:05:06.623Z,14.04
2018-05-21T23:10:09.123Z,13.95
2018-05-21T23:15:11.609Z,13.98
2018-05-21T23:20:14.102Z,13.93
2018-05-21T23:25:17.721Z,13.75
2018-05-21T23:30:20.257Z,13.70
2018-05-21T23:35:22.880Z,13.40
2018-05-21T23:40:25.507Z,13.30
2018-05-21T23:45:28.047Z,13.01
2018-05-21T23:50:30.598Z,12.62
2018-05-21T23:55:33.127Z,12.38
